Time;durP1;ratioP1;P1;durP2;ratioP2;P2;SDS_P1;SDS_P2;PMS_P1;PMS_P2;Temp;Humidity;BMP_temperature;BMP_pressure;BME280_temperature;BME280_humidity;BME280_pressure;Samples;Min_cycle;Max_cycle;Signal;HPM_P1;HPM_P2
2023/03/14 00:01:13;;;;;;;24.10;5.65;;;10.10;99.90;;;;;;4994098;28;20039;-72
2023/03/14 00:03:39;;;;;;;26.00;5.05;;;10.10;99.90;;;;;;4993976;28;20041;-71
2023/03/14 00:06:05;;;;;;;27.63;5.55;;;10.20;99.90;;;;;;4994016;28;20034;-71
2023/03/14 00:08:31;;;;;;;28.20;5.88;;;10.20;99.90;;;;;;4993880;28;20044;-72
2023/03/14 00:11:00;;;;;;;21.83;4.85;;;10.20;99.90;;;;;;4993895;28;20125;-71
2023/03/14 00:13:25;;;;;;;26.92;5.05;;;10.20;99.90;;;;;;4993783;28;20030;-71
2023/03/14 00:15:51;;;;;;;21.95;4.30;;;10.30;99.90;;;;;;4993769;28;20042;-71
2023/03/14 00:18:17;;;;;;;22.63;4.60;;;10.40;99.90;;;;;;4993754;28;20064;-71
2023/03/14 00:20:43;;;;;;;21.55;4.43;;;10.50;99.90;;;;;;4993630;28;20046;-72
2023/03/14 00:23:08;;;;;;;22.50;4.35;;;10.50;99.90;;;;;;4993177;28;20041;-71
2023/03/14 00:25:35;;;;;;;28.75;5.35;;;10.60;99.90;;;;;;4993605;28;20514;-71
2023/03/14 00:28:00;;;;;;;20.73;4.85;;;10.60;99.90;;;;;;4994051;28;20038;-71
2023/03/14 00:30:26;;;;;;;25.00;4.93;;;10.60;99.90;;;;;;4994055;28;20558;-71
2023/03/14 00:32:51;;;;;;;23.35;5.15;;;10.60;99.90;;;;;;4993346;28;20471;-71
2023/03/14 00:35:17;;;;;;;18.58;4.75;;;10.60;99.90;;;;;;4993457;28;20092;-72
2023/03/14 00:37:42;;;;;;;24.00;4.38;;;10.60;99.90;;;;;;4993389;28;20065;-72
2023/03/14 00:40:09;;;;;;;25.08;4.97;;;10.60;99.90;;;;;;4977099;28;20049;-72
2023/03/14 00:42:35;;;;;;;25.70;4.85;;;10.60;99.90;;;;;;4993227;28;20360;-71
2023/03/14 00:45:00;;;;;;;25.25;5.20;;;10.70;99.90;;;;;;4976999;28;20038;-71
2023/03/14 00:47:26;;;;;;;23.33;4.45;;;10.70;99.90;;;;;;4977049;28;20038;-71
2023/03/14 00:49:52;;;;;;;25.70;5.40;;;10.70;99.90;;;;;;4993165;28;20034;-72
2023/03/14 00:52:17;;;;;;;22.17;4.15;;;10.80;99.90;;;;;;4993121;28;20498;-72
2023/03/14 00:54:43;;;;;;;20.17;5.22;;;10.80;99.90;;;;;;4992959;28;20074;-71
2023/03/14 00:57:08;;;;;;;24.80;5.40;;;10.90;99.90;;;;;;4993055;28;20050;-71
2023/03/14 00:59:34;;;;;;;22.60;5.00;;;10.90;99.90;;;;;;4993116;28;20038;-71
2023/03/14 01:01:59;;;;;;;24.80;4.80;;;10.90;99.90;;;;;;4992945;28;20415;-72
2023/03/14 01:04:25;;;;;;;20.60;5.47;;;10.90;99.90;;;;;;4992897;28;20041;-72
2023/03/14 01:06:51;;;;;;;24.52;4.65;;;10.80;99.90;;;;;;4992898;28;20080;-72
2023/03/14 01:09:17;;;;;;;27.55;4.85;;;10.70;99.90;;;;;;4992822;28;20108;-72
2023/03/14 01:11:46;;;;;;;24.92;4.90;;;10.70;99.90;;;;;;4992812;28;20046;-71
2023/03/14 01:14:12;;;;;;;32.13;5.40;;;10.60;99.90;;;;;;4992717;28;20049;-71
2023/03/14 01:16:37;;;;;;;20.33;5.07;;;10.60;99.90;;;;;;4992973;28;20061;-71
2023/03/14 01:19:04;;;;;;;22.20;5.03;;;10.60;99.90;;;;;;4992845;28;20034;-71
2023/03/14 01:21:33;;;;;;;22.08;4.70;;;10.50;99.90;;;;;;4992686;28;20042;-71
2023/03/14 01:24:00;;;;;;;20.60;5.88;;;10.50;99.90;;;;;;4992810;28;20038;-71
2023/03/14 01:26:28;;;;;;;24.55;5.18;;;10.50;99.90;;;;;;4992889;28;20064;-72
2023/03/14 01:28:56;;;;;;;29.90;5.85;;;10.60;99.90;;;;;;4976658;28;20034;-72
2023/03/14 01:31:22;;;;;;;20.63;5.63;;;10.60;99.90;;;;;;4992537;28;20042;-72
2023/03/14 01:33:47;;;;;;;19.30;4.95;;;10.60;99.90;;;;;;4992573;28;20129;-71
2023/03/14 01:36:13;;;;;;;21.60;4.78;;;10.50;99.90;;;;;;4992502;28;20089;-71
2023/03/14 01:38:40;;;;;;;22.25;5.20;;;10.50;99.90;;;;;;4992430;28;20074;-72
2023/03/14 01:41:07;;;;;;;18.52;4.40;;;10.50;99.90;;;;;;4992453;28;20380;-71
2023/03/14 01:43:33;;;;;;;21.58;5.15;;;10.50;99.90;;;;;;4992396;28;20053;-71
2023/03/14 01:46:04;;;;;;;19.80;3.90;;;10.40;99.90;;;;;;4992387;28;20117;-72
2023/03/14 01:48:38;;;;;;;20.08;4.03;;;10.40;99.90;;;;;;4992658;28;20046;-72
2023/03/14 01:51:09;;;;;;;18.55;3.85;;;10.40;99.90;;;;;;4992625;28;20092;-72
2023/03/14 01:53:36;;;;;;;17.23;3.95;;;10.40;99.90;;;;;;4992600;28;20031;-71
2023/03/14 01:56:03;;;;;;;16.48;3.78;;;10.40;99.90;;;;;;4992360;28;20074;-71
2023/03/14 01:58:31;;;;;;;16.00;3.67;;;10.40;99.90;;;;;;4992220;28;20051;-71
2023/03/14 02:00:59;;;;;;;15.10;3.60;;;10.40;99.90;;;;;;4992275;28;20046;-71
2023/03/14 02:03:26;;;;;;;23.58;3.88;;;10.40;99.90;;;;;;4992200;28;20042;-71
2023/03/14 02:05:56;;;;;;;19.55;4.28;;;10.40;99.90;;;;;;4992239;28;20092;-71
2023/03/14 02:08:22;;;;;;;16.63;3.30;;;10.40;99.90;;;;;;4992234;28;20045;-71
2023/03/14 02:10:49;;;;;;;18.20;3.42;;;10.40;99.90;;;;;;4992172;28;20419;-71
2023/03/14 02:13:17;;;;;;;23.85;3.92;;;10.40;99.90;;;;;;4992385;28;20101;-71
2023/03/14 02:15:43;;;;;;;20.05;3.47;;;10.30;99.90;;;;;;4992064;28;20423;-71
2023/03/14 02:18:10;;;;;;;15.45;3.60;;;10.30;99.90;;;;;;4992150;28;20042;-71
2023/03/14 02:20:50;;;;;;;16.25;3.65;;;10.30;99.90;;;;;;4992027;28;20121;-71
2023/03/14 02:23:42;;;;;;;14.82;3.05;;;10.30;99.90;;;;;;4992250;28;20487;-71
2023/03/14 02:26:15;;;;;;;19.05;4.35;;;10.20;99.90;;;;;;4979211;28;20511;-72
2023/03/14 02:28:41;;;;;;;21.17;3.90;;;10.20;99.90;;;;;;4992109;28;20518;-72
2023/03/14 02:31:08;;;;;;;18.60;3.28;;;10.20;99.90;;;;;;4992079;28;20039;-72
2023/03/14 02:33:35;;;;;;;16.90;4.22;;;10.20;99.90;;;;;;4992002;28;20125;-71
2023/03/14 02:36:09;;;;;;;18.83;3.40;;;10.10;99.90;;;;;;4975940;28;20034;-71
2023/03/14 02:38:37;;;;;;;18.08;3.97;;;10.10;99.90;;;;;;4993064;28;20121;-71
2023/03/14 02:41:03;;;;;;;14.32;4.07;;;10.10;99.90;;;;;;4992163;28;20038;-71
2023/03/14 02:43:29;;;;;;;19.17;4.50;;;10.10;99.90;;;;;;4992139;28;20043;-71
2023/03/14 02:45:55;;;;;;;17.23;3.42;;;10.00;99.90;;;;;;4993044;28;20034;-71
2023/03/14 02:48:31;;;;;;;21.60;4.65;;;10.00;99.90;;;;;;4995430;28;20035;-72
2023/03/14 02:50:59;;;;;;;19.23;4.50;;;10.10;99.90;;;;;;4979257;28;20035;-72
2023/03/14 02:53:31;;;;;;;19.85;5.00;;;10.00;99.90;;;;;;4995283;28;20407;-71
2023/03/14 02:55:57;;;;;;;18.38;4.35;;;10.00;99.90;;;;;;4995396;28;20078;-71
2023/03/14 02:58:23;;;;;;;14.85;4.00;;;9.90;99.90;;;;;;4979028;28;20074;-71
2023/03/14 03:00:49;;;;;;;17.02;4.32;;;9.90;99.90;;;;;;4995129;28;20077;-71
2023/03/14 03:03:14;;;;;;;18.73;4.40;;;9.90;99.90;;;;;;4978888;28;20070;-71
2023/03/14 03:05:42;;;;;;;17.63;4.05;;;9.90;99.90;;;;;;4995102;28;20073;-72
2023/03/14 03:08:08;;;;;;;18.25;4.20;;;9.80;99.90;;;;;;4995084;28;20046;-72
2023/03/14 03:10:34;;;;;;;16.80;3.75;;;9.70;99.90;;;;;;4995347;28;20073;-72
2023/03/14 03:12:59;;;;;;;16.60;3.85;;;9.70;99.90;;;;;;4994904;28;20042;-71
2023/03/14 03:15:26;;;;;;;14.65;4.05;;;9.70;99.90;;;;;;4994953;28;20049;-72
2023/03/14 03:17:52;;;;;;;13.60;3.90;;;9.70;99.90;;;;;;4994995;28;20034;-72
2023/03/14 03:20:18;;;;;;;11.52;3.08;;;9.60;99.90;;;;;;4994762;28;20050;-72
2023/03/14 03:22:43;;;;;;;13.13;3.88;;;9.60;99.90;;;;;;4994810;28;20046;-71
2023/03/14 03:25:09;;;;;;;12.63;3.50;;;9.60;99.90;;;;;;4994801;28;20074;-71
2023/03/14 03:27:36;;;;;;;14.25;3.40;;;9.60;99.90;;;;;;4994712;28;20450;-72
2023/03/14 03:30:04;;;;;;;14.57;3.70;;;9.50;99.90;;;;;;4994688;28;20092;-72
2023/03/14 03:32:29;;;;;;;18.63;3.72;;;9.50;99.90;;;;;;4994749;28;20046;-71
2023/03/14 03:34:55;;;;;;;16.27;4.07;;;9.50;99.90;;;;;;4994617;28;20088;-71
2023/03/14 03:37:20;;;;;;;14.75;3.70;;;9.50;99.90;;;;;;4994844;28;20034;-71
2023/03/14 03:39:46;;;;;;;10.82;4.05;;;9.50;99.90;;;;;;4994454;28;20491;-71
2023/03/14 03:42:11;;;;;;;14.13;3.90;;;9.40;99.90;;;;;;4994515;28;20069;-71
2023/03/14 03:44:37;;;;;;;13.98;4.15;;;9.50;99.90;;;;;;4994616;28;20121;-71
2023/03/14 03:47:03;;;;;;;14.80;4.57;;;9.40;99.90;;;;;;4994622;28;20038;-71
2023/03/14 03:49:30;;;;;;;14.70;4.60;;;9.40;99.90;;;;;;4978140;28;20498;-71
2023/03/14 03:51:56;;;;;;;21.55;5.50;;;9.40;99.90;;;;;;4994556;28;20446;-71
2023/03/14 03:54:21;;;;;;;14.77;5.10;;;9.40;99.90;;;;;;4994218;28;20518;-71
2023/03/14 03:56:47;;;;;;;15.30;4.55;;;9.40;99.90;;;;;;4993820;28;20121;-71
2023/03/14 03:59:12;;;;;;;13.25;4.53;;;9.40;99.90;;;;;;4993683;28;20042;-71
2023/03/14 04:01:38;;;;;;;22.85;6.53;;;9.30;99.90;;;;;;4994369;28;20072;-72
2023/03/14 04:04:04;;;;;;;19.35;5.25;;;9.30;99.90;;;;;;4994003;28;20035;-71
2023/03/14 04:06:30;;;;;;;17.92;5.47;;;9.30;99.90;;;;;;4994284;28;20049;-72
2023/03/14 04:08:56;;;;;;;16.20;5.30;;;9.20;99.90;;;;;;4993857;28;20042;-72
2023/03/14 04:11:21;;;;;;;16.95;5.40;;;9.20;99.90;;;;;;4994175;28;20030;-71
2023/03/14 04:13:47;;;;;;;18.13;5.32;;;9.20;99.90;;;;;;4993800;28;20519;-71
2023/03/14 04:16:33;;;;;;;19.85;5.93;;;9.20;99.90;;;;;;4994058;28;20034;-71
2023/03/14 04:18:59;;;;;;;14.15;4.53;;;9.10;99.90;;;;;;4993954;28;20129;-71
2023/03/14 04:21:25;;;;;;;12.35;4.07;;;9.10;99.90;;;;;;4993721;28;20037;-71
2023/03/14 04:23:51;;;;;;;14.93;4.30;;;9.10;99.90;;;;;;4993616;28;20038;-71
2023/03/14 04:26:16;;;;;;;11.02;3.83;;;9.10;99.90;;;;;;4993605;28;20038;-71
2023/03/14 04:28:42;;;;;;;16.33;4.47;;;9.10;99.90;;;;;;4977443;28;20045;-71
2023/03/14 04:31:19;;;;;;;12.95;4.25;;;9.10;99.90;;;;;;4993563;28;20096;-71
2023/03/14 04:33:45;;;;;;;17.27;3.83;;;9.20;99.90;;;;;;4993357;28;20091;-71
2023/03/14 04:36:11;;;;;;;12.85;3.55;;;9.10;99.90;;;;;;4993705;28;20049;-71
2023/03/14 04:38:37;;;;;;;15.82;4.03;;;9.20;99.90;;;;;;4993317;28;20035;-72
2023/03/14 04:41:03;;;;;;;11.50;3.72;;;9.20;99.90;;;;;;4993291;28;20457;-71
2023/03/14 04:43:29;;;;;;;12.27;3.72;;;9.10;99.90;;;;;;4993275;28;20038;-71
2023/03/14 04:45:56;;;;;;;12.63;3.60;;;9.10;99.90;;;;;;4993524;28;20097;-71
2023/03/14 04:48:22;;;;;;;13.70;4.07;;;9.10;99.90;;;;;;4993251;28;20507;-71
2023/03/14 04:50:48;;;;;;;12.52;3.53;;;9.00;99.90;;;;;;4993388;28;20092;-71
2023/03/14 04:53:14;;;;;;;16.77;5.13;;;9.00;99.90;;;;;;4976783;28;20045;-71
2023/03/14 04:55:40;;;;;;;15.13;4.18;;;9.10;99.90;;;;;;4993348;28;20049;-72
2023/03/14 04:58:06;;;;;;;16.60;5.07;;;9.00;99.90;;;;;;4993085;28;20035;-72
2023/03/14 05:00:32;;;;;;;13.57;4.25;;;9.00;99.90;;;;;;4992911;28;20065;-72
2023/03/14 05:02:57;;;;;;;16.77;4.70;;;9.00;99.90;;;;;;4992889;28;20121;-71
2023/03/14 05:05:23;;;;;;;16.00;4.95;;;9.00;99.90;;;;;;4992964;28;20081;-72
2023/03/14 05:07:49;;;;;;;13.70;4.57;;;8.90;99.90;;;;;;4992964;28;20114;-72
2023/03/14 05:10:14;;;;;;;14.98;4.60;;;9.00;99.90;;;;;;4992581;28;20045;-72
2023/03/14 05:12:40;;;;;;;11.50;4.10;;;9.00;99.90;;;;;;4993035;28;20050;-71
2023/03/14 05:15:06;;;;;;;12.25;4.20;;;9.00;99.90;;;;;;4992690;28;20415;-71
2023/03/14 05:17:33;;;;;;;15.70;4.05;;;9.00;99.90;;;;;;4992707;28;20045;-71
2023/03/14 05:19:58;;;;;;;10.80;3.88;;;9.00;99.90;;;;;;4992725;28;20064;-72
2023/03/14 05:22:24;;;;;;;16.05;4.63;;;9.10;99.90;;;;;;4992660;28;20566;-72
2023/03/14 05:24:50;;;;;;;14.43;4.57;;;9.10;99.90;;;;;;4976632;28;20037;-72
2023/03/14 05:27:15;;;;;;;13.52;4.40;;;9.10;99.90;;;;;;4992667;28;20069;-72
2023/03/14 05:29:41;;;;;;;13.07;3.88;;;9.10;99.90;;;;;;4992591;28;20070;-72
2023/03/14 05:32:06;;;;;;;14.05;6.03;;;9.20;99.90;;;;;;4992817;28;20077;-72
2023/03/14 05:34:32;;;;;;;13.27;5.00;;;9.20;99.90;;;;;;4992378;28;20503;-71
2023/03/14 05:36:58;;;;;;;22.75;5.68;;;9.20;99.90;;;;;;4976577;28;20093;-71
2023/03/14 05:39:23;;;;;;;14.55;5.43;;;9.10;99.90;;;;;;4992420;28;20471;-72
2023/03/14 05:41:49;;;;;;;19.40;6.03;;;9.10;99.90;;;;;;4992390;28;20129;-71
2023/03/14 05:44:14;;;;;;;17.90;6.40;;;9.10;99.90;;;;;;4992611;28;20046;-71
2023/03/14 05:46:40;;;;;;;17.27;6.25;;;9.00;99.90;;;;;;4992370;28;20034;-71
2023/03/14 05:49:06;;;;;;;19.38;6.53;;;9.00;99.90;;;;;;4992690;28;20042;-71
2023/03/14 05:51:31;;;;;;;24.48;6.10;;;8.90;99.90;;;;;;4976252;28;20557;-71
2023/03/14 05:53:57;;;;;;;23.67;6.00;;;9.00;99.90;;;;;;4976338;28;20046;-71
2023/03/14 05:56:22;;;;;;;20.60;6.88;;;8.90;99.90;;;;;;4992332;28;20044;-71
2023/03/14 05:58:48;;;;;;;20.80;5.68;;;8.90;99.90;;;;;;4992275;28;20077;-71
2023/03/14 06:01:13;;;;;;;17.25;5.85;;;8.90;99.90;;;;;;4992267;28;20041;-71
2023/03/14 06:03:39;;;;;;;17.35;5.88;;;8.90;99.90;;;;;;4992426;28;20121;-72
2023/03/14 06:06:05;;;;;;;14.60;5.90;;;8.90;99.90;;;;;;4992465;28;20113;-72
2023/03/14 06:08:30;;;;;;;14.13;5.00;;;8.90;99.90;;;;;;4992187;28;20428;-71
2023/03/14 06:10:57;;;;;;;16.65;5.40;;;8.90;99.90;;;;;;4992267;28;20042;-71
2023/03/14 06:13:23;;;;;;;11.30;4.85;;;8.90;99.90;;;;;;4992358;28;20054;-71
2023/03/14 06:15:48;;;;;;;13.23;4.65;;;8.90;99.90;;;;;;4992104;28;20442;-71
2023/03/14 06:18:14;;;;;;;12.10;4.68;;;8.90;99.90;;;;;;4992159;28;20129;-71
2023/03/14 06:20:40;;;;;;;13.40;4.60;;;8.90;99.90;;;;;;4992972;28;20041;-71
2023/03/14 06:23:07;;;;;;;12.15;5.22;;;8.90;99.90;;;;;;4995891;28;20034;-71
2023/03/14 06:25:34;;;;;;;15.23;5.43;;;8.90;99.90;;;;;;4996319;28;20406;-71
2023/03/14 06:27:59;;;;;;;11.95;4.40;;;8.90;99.90;;;;;;4996013;28;20045;-71
2023/03/14 06:30:25;;;;;;;11.55;4.43;;;8.90;99.90;;;;;;4996002;28;20046;-71
2023/03/14 06:32:50;;;;;;;12.88;4.25;;;8.90;99.90;;;;;;4995804;28;20459;-71
2023/03/14 06:35:16;;;;;;;11.88;3.40;;;9.00;99.90;;;;;;4995751;28;20042;-72
2023/03/14 06:37:42;;;;;;;7.35;3.15;;;9.00;99.90;;;;;;4979523;28;20129;-72
2023/03/14 06:40:10;;;;;;;9.50;3.28;;;8.90;99.90;;;;;;4979356;28;20042;-72
2023/03/14 06:42:35;;;;;;;13.18;4.10;;;8.90;99.90;;;;;;4995918;28;20048;-72
2023/03/14 06:45:01;;;;;;;9.20;3.35;;;9.00;99.90;;;;;;4995454;28;20607;-72
2023/03/14 06:47:27;;;;;;;10.90;3.47;;;9.00;99.90;;;;;;4995472;28;20074;-72
2023/03/14 06:49:53;;;;;;;10.70;3.63;;;8.90;99.90;;;;;;4995437;28;20089;-72
2023/03/14 06:52:18;;;;;;;16.38;4.75;;;8.90;99.90;;;;;;4995380;28;20112;-72
2023/03/14 06:54:44;;;;;;;15.80;4.30;;;8.90;99.90;;;;;;4995804;28;20046;-73
2023/03/14 06:57:09;;;;;;;13.43;4.43;;;9.00;99.90;;;;;;4979417;28;20045;-73
2023/03/14 06:59:35;;;;;;;11.82;3.67;;;8.90;99.90;;;;;;4979036;28;20538;-73
2023/03/14 07:02:00;;;;;;;9.63;3.88;;;8.90;99.90;;;;;;4995328;28;20039;-73
2023/03/14 07:04:26;;;;;;;12.23;3.60;;;8.90;99.90;;;;;;4995114;28;20044;-73
2023/03/14 07:06:52;;;;;;;10.30;2.90;;;8.90;99.90;;;;;;4995456;28;20034;-73
2023/03/14 07:09:17;;;;;;;7.78;2.47;;;8.90;99.90;;;;;;4995137;28;20566;-73
2023/03/14 07:11:43;;;;;;;9.90;3.00;;;8.90;99.90;;;;;;4995079;28;20038;-72
2023/03/14 07:14:09;;;;;;;6.82;2.13;;;8.90;99.90;;;;;;4995002;28;20100;-72
2023/03/14 07:16:35;;;;;;;8.25;1.00;;;8.90;99.90;;;;;;4995015;28;20042;-72
2023/03/14 07:19:01;;;;;;;4.63;0.98;;;8.70;99.90;;;;;;4994876;28;20134;-72
2023/03/14 07:21:27;;;;;;;7.28;0.82;;;8.50;99.90;;;;;;4995288;28;20049;-72
2023/03/14 07:23:54;;;;;;;8.70;1.20;;;8.30;99.90;;;;;;4994876;28;20042;-72
2023/03/14 07:26:20;;;;;;;8.63;1.15;;;8.10;99.90;;;;;;4994870;28;20089;-72
2023/03/14 07:28:46;;;;;;;8.77;1.00;;;8.00;99.90;;;;;;4994783;28;20042;-72
2023/03/14 07:31:11;;;;;;;7.43;1.70;;;7.90;99.90;;;;;;4994891;28;20144;-72
2023/03/14 07:33:37;;;;;;;7.28;1.02;;;7.80;99.90;;;;;;4994571;28;20487;-72
2023/03/14 07:36:03;;;;;;;5.82;1.10;;;7.70;99.90;;;;;;4994889;28;20034;-72
2023/03/14 07:38:29;;;;;;;12.70;1.38;;;7.60;99.90;;;;;;4978464;28;20049;-72
2023/03/14 07:41:00;;;;;;;12.18;1.25;;;7.50;99.90;;;;;;4978312;28;20047;-72
2023/03/14 07:43:25;;;;;;;10.15;1.30;;;7.30;99.90;;;;;;4994585;28;20093;-72
2023/03/14 07:45:51;;;;;;;6.32;0.73;;;7.10;99.90;;;;;;4994636;28;20034;-73
2023/03/14 07:48:17;;;;;;;7.70;0.82;;;7.00;99.90;;;;;;4994496;28;20038;-72
2023/03/14 07:50:42;;;;;;;7.70;0.90;;;6.80;99.90;;;;;;4994418;28;20038;-72
2023/03/14 07:53:08;;;;;;;3.75;0.55;;;6.60;99.90;;;;;;4994622;28;20065;-72
2023/03/14 07:55:34;;;;;;;2.65;0.40;;;6.50;99.90;;;;;;4994437;28;20129;-72
2023/03/14 07:57:59;;;;;;;4.65;0.70;;;6.40;99.90;;;;;;4994255;28;20133;-72
2023/03/14 08:00:25;;;;;;;4.15;0.50;;;6.20;99.90;;;;;;4994237;28;20068;-72
2023/03/14 08:02:51;;;;;;;4.75;0.70;;;6.10;99.90;;;;;;4994102;28;20499;-71
2023/03/14 08:05:16;;;;;;;7.40;0.80;;;6.00;99.90;;;;;;4994404;28;20034;-72
2023/03/14 08:07:42;;;;;;;1.88;0.30;;;6.00;99.90;;;;;;4994111;28;20503;-72
2023/03/14 08:10:09;;;;;;;4.00;0.50;;;6.00;99.90;;;;;;4994025;28;20046;-72
2023/03/14 08:12:34;;;;;;;4.10;0.60;;;5.90;99.90;;;;;;4994190;28;20038;-72
2023/03/14 08:15:00;;;;;;;4.65;0.60;;;5.90;99.90;;;;;;4993864;28;20565;-72
2023/03/14 08:17:26;;;;;;;7.45;0.80;;;5.90;99.90;;;;;;4993881;28;20049;-72
2023/03/14 08:19:52;;;;;;;4.43;0.50;;;5.90;99.90;;;;;;4994063;28;20051;-72
2023/03/14 08:22:17;;;;;;;5.45;0.50;;;6.00;99.90;;;;;;4993880;28;20038;-72
2023/03/14 08:24:43;;;;;;;3.88;0.70;;;5.90;99.90;;;;;;4993881;28;20046;-72
2023/03/14 08:27:08;;;;;;;5.95;0.73;;;6.00;99.90;;;;;;4977422;28;20509;-72
2023/03/14 08:29:34;;;;;;;6.32;0.60;;;6.00;99.90;;;;;;4993904;28;20097;-72
2023/03/14 08:31:59;;;;;;;4.28;0.50;;;6.00;99.90;;;;;;4993574;28;20045;-72
2023/03/14 08:34:25;;;;;;;6.63;0.50;;;6.00;99.90;;;;;;4993385;28;20042;-72
2023/03/14 08:36:51;;;;;;;8.00;0.82;;;6.00;99.90;;;;;;4993571;28;20046;-73
2023/03/14 08:39:16;;;;;;;3.15;0.60;;;6.00;99.90;;;;;;4993389;28;20049;-73
2023/03/14 08:41:44;;;;;;;6.15;0.50;;;6.10;99.90;;;;;;4993690;28;20121;-72
2023/03/14 08:44:11;;;;;;;5.90;1.10;;;6.20;99.90;;;;;;4992769;28;20045;-72
2023/03/14 08:46:37;;;;;;;5.90;0.75;;;6.30;99.90;;;;;;4993338;28;20042;-72
2023/03/14 08:49:02;;;;;;;6.10;0.70;;;6.30;99.90;;;;;;4993256;28;20038;-73
2023/03/14 08:51:28;;;;;;;5.13;0.63;;;6.40;99.90;;;;;;4993527;28;20057;-73
2023/03/14 08:53:54;;;;;;;5.47;1.45;;;6.40;99.90;;;;;;4977213;28;20038;-72
2023/03/14 08:56:19;;;;;;;4.63;0.57;;;6.40;99.90;;;;;;4993419;28;20496;-72
2023/03/14 08:58:45;;;;;;;7.18;0.70;;;6.40;99.90;;;;;;4993068;28;20042;-72
2023/03/14 09:01:11;;;;;;;5.68;0.90;;;6.50;99.90;;;;;;4993401;28;20096;-72
2023/03/14 09:03:37;;;;;;;7.80;0.90;;;6.50;99.90;;;;;;4976769;28;20403;-72
2023/03/14 09:06:04;;;;;;;8.07;1.08;;;6.60;99.90;;;;;;4993061;28;20550;-72
2023/03/14 09:08:30;;;;;;;9.77;1.50;;;6.70;99.90;;;;;;4993247;28;20042;-72
2023/03/14 09:10:56;;;;;;;9.80;1.48;;;6.80;99.90;;;;;;4993019;28;20042;-71
2023/03/14 09:13:21;;;;;;;12.27;1.70;;;6.80;99.90;;;;;;4992848;28;20114;-73
2023/03/14 09:15:55;;;;;;;11.43;1.30;;;6.90;99.90;;;;;;4992862;28;20121;-72
2023/03/14 09:18:22;;;;;;;9.73;1.60;;;7.10;99.90;;;;;;4992849;28;20057;-72
2023/03/14 09:20:48;;;;;;;10.63;1.92;;;7.10;99.90;;;;;;4992764;28;20157;-72
2023/03/14 09:23:14;;;;;;;12.02;1.80;;;7.20;99.90;;;;;;4992979;28;20117;-72
2023/03/14 09:25:39;;;;;;;13.85;2.00;;;7.20;99.90;;;;;;4992705;28;20045;-72
2023/03/14 09:28:05;;;;;;;12.10;2.28;;;7.10;99.90;;;;;;4992796;28;20046;-72
2023/03/14 09:30:31;;;;;;;14.93;1.90;;;7.00;99.90;;;;;;4992624;28;20053;-72
2023/03/14 09:32:57;;;;;;;12.43;2.38;;;7.00;99.90;;;;;;4992393;28;20042;-71
2023/03/14 09:35:23;;;;;;;18.42;3.05;;;7.00;99.90;;;;;;4992648;28;20049;-72
2023/03/14 09:37:49;;;;;;;17.13;2.58;;;7.00;99.90;;;;;;4992563;28;20050;-72
2023/03/14 09:40:19;;;;;;;15.48;2.53;;;7.10;99.90;;;;;;4993743;28;20102;-72
2023/03/14 09:42:49;;;;;;;17.80;2.65;;;7.30;99.90;;;;;;4992576;28;20037;-72
2023/03/14 09:45:26;;;;;;;20.05;2.58;;;7.40;99.90;;;;;;4992565;28;20038;-72
2023/03/14 09:47:53;;;;;;;15.70;2.95;;;7.60;99.90;;;;;;4992545;28;20101;-72
2023/03/14 09:50:19;;;;;;;15.82;2.53;;;7.90;99.90;;;;;;4992461;28;20080;-72
2023/03/14 09:52:55;;;;;;;17.65;2.95;;;8.00;99.90;;;;;;4992699;28;20042;-72
2023/03/14 09:55:22;;;;;;;19.33;3.10;;;7.90;99.90;;;;;;4976640;28;20396;-72
2023/03/14 09:57:57;;;;;;;22.17;3.28;;;7.80;99.90;;;;;;4996503;28;20464;-72
2023/03/14 10:00:27;;;;;;;21.35;3.60;;;7.70;99.90;;;;;;4996383;28;20415;-72
2023/03/14 10:03:02;;;;;;;23.05;3.25;;;7.50;99.90;;;;;;4996333;28;20046;-72
2023/03/14 10:05:29;;;;;;;19.38;3.05;;;7.40;99.90;;;;;;4996668;28;20124;-72
2023/03/14 10:07:55;;;;;;;20.25;3.20;;;7.40;99.90;;;;;;4996563;28;20053;-72
2023/03/14 10:10:24;;;;;;;20.45;3.58;;;7.40;99.90;;;;;;4996269;28;20411;-72
2023/03/14 10:13:14;;;;;;;21.13;3.55;;;7.50;99.90;;;;;;4996143;28;20081;-71
2023/03/14 10:15:40;;;;;;;24.75;3.55;;;7.50;99.90;;;;;;4996544;28;20114;-72
2023/03/14 10:18:12;;;;;;;23.63;3.85;;;7.40;99.90;;;;;;4996398;28;20586;-72
2023/03/14 10:20:39;;;;;;;24.27;4.07;;;7.40;99.90;;;;;;4996060;28;20046;-72
2023/03/14 10:23:21;;;;;;;26.20;3.63;;;7.40;99.90;;;;;;4996016;28;20070;-72
2023/03/14 10:26:07;;;;;;;27.27;3.58;;;7.30;99.90;;;;;;4996324;28;20038;-72
2023/03/14 10:28:39;;;;;;;31.77;4.78;;;7.30;99.90;;;;;;4995909;28;20039;-72
2023/03/14 10:31:05;;;;;;;19.50;3.67;;;7.20;99.90;;;;;;4996173;28;20495;-72
2023/03/14 10:33:33;;;;;;;26.15;3.70;;;7.20;99.90;;;;;;4995606;28;20053;-72
2023/03/14 10:36:02;;;;;;;18.25;3.65;;;7.20;99.90;;;;;;4995771;28;20046;-72
2023/03/14 10:38:34;;;;;;;21.92;3.58;;;7.20;99.90;;;;;;4995723;28;20046;-72
2023/03/14 10:41:01;;;;;;;28.00;4.20;;;7.20;99.90;;;;;;4995700;28;20077;-72
2023/03/14 10:43:38;;;;;;;18.73;3.15;;;7.20;99.90;;;;;;4995853;28;20054;-72
2023/03/14 10:46:32;;;;;;;25.92;3.80;;;7.20;99.90;;;;;;4995646;28;20500;-72
2023/03/14 10:48:57;;;;;;;;;;;7.30;99.90;;;;;;4977090;28;20104;-72
2023/03/14 10:51:29;;;;;;;16.70;2.75;;;7.70;99.90;;;;;;4995508;28;20383;-72
2023/03/14 10:53:57;;;;;;;23.27;3.00;;;8.00;99.90;;;;;;4979481;28;20042;-72
2023/03/14 10:56:25;;;;;;;15.88;2.97;;;8.20;99.90;;;;;;4995905;28;20057;-72
2023/03/14 10:58:55;;;;;;;20.50;3.08;;;8.30;99.90;;;;;;4995393;28;20050;-72
2023/03/14 11:01:55;;;;;;;18.90;3.33;;;8.40;99.90;;;;;;4995821;28;20057;-72
2023/03/14 11:04:35;;;;;;;19.17;2.83;;;8.30;99.90;;;;;;4961093;28;20104;-72
2023/03/14 11:07:13;;;;;;;23.65;3.83;;;8.20;99.90;;;;;;4994776;28;20092;-72
2023/03/14 11:09:55;;;;;;;18.23;2.70;;;8.30;99.90;;;;;;4995319;28;20046;-72
2023/03/14 11:12:32;;;;;;;15.07;2.90;;;8.50;99.90;;;;;;4995275;28;20085;-72
2023/03/14 11:15:05;;;;;;;14.50;2.70;;;8.90;99.90;;;;;;4995010;28;20384;-72
2023/03/14 11:17:45;;;;;;;19.75;3.45;;;9.00;99.20;;;;;;4978991;28;20046;-72
2023/03/14 11:20:30;;;;;;;13.82;2.50;;;8.80;98.40;;;;;;4995116;28;20084;-72
2023/03/14 11:23:21;;;;;;;14.80;2.58;;;8.60;97.20;;;;;;4995134;28;20042;-71
2023/03/14 11:25:58;;;;;;;13.23;2.88;;;8.50;98.30;;;;;;4995046;28;20050;-72
2023/03/14 11:28:33;;;;;;;14.00;2.35;;;8.70;97.40;;;;;;4994897;28;20034;-72
2023/03/14 11:31:20;;;;;;;13.55;2.38;;;9.10;96.00;;;;;;4995030;28;20566;-72
2023/03/14 11:34:16;;;;;;;15.35;2.45;;;9.50;95.00;;;;;;4994741;28;20046;-71
2023/03/14 11:36:52;;;;;;;11.90;1.85;;;9.70;92.20;;;;;;4978707;28;20078;-72
2023/03/14 11:39:19;;;;;;;15.23;1.70;;;10.30;93.40;;;;;;4994678;28;20038;-72
2023/03/14 11:41:53;;;;;;;15.70;2.47;;;10.60;92.20;;;;;;4994734;28;20046;-72
2023/03/14 11:44:30;;;;;;;15.68;2.75;;;10.40;90.10;;;;;;4994767;28;20066;-72
2023/03/14 11:47:11;;;;;;;11.68;1.90;;;10.00;90.00;;;;;;4994813;28;20056;-71
2023/03/14 11:49:48;;;;;;;11.80;1.92;;;9.60;90.00;;;;;;4994512;28;20464;-72
2023/03/14 11:52:25;;;;;;;11.85;2.10;;;9.30;88.40;;;;;;4994438;28;20046;-72
2023/03/14 11:55:03;;;;;;;13.13;2.38;;;9.30;90.00;;;;;;4994493;28;20050;-71
2023/03/14 11:57:29;;;;;;;9.30;2.30;;;9.70;89.30;;;;;;4994358;28;20058;-72
2023/03/14 12:00:12;;;;;;;11.23;2.03;;;10.50;90.90;;;;;;4994351;28;20052;-72
2023/03/14 12:03:04;;;;;;;8.50;1.70;;;10.90;87.10;;;;;;4994269;28;20052;-71
2023/03/14 12:05:38;;;;;;;6.80;1.50;;;11.40;79.80;;;;;;4994241;28;20030;-71
2023/03/14 12:08:07;;;;;;;6.57;1.40;;;11.80;77.50;;;;;;4977970;28;20514;-72
2023/03/14 12:10:49;;;;;;;9.15;1.40;;;11.90;76.50;;;;;;4994094;28;20085;-72
2023/03/14 12:13:16;;;;;;;7.03;1.60;;;11.80;76.10;;;;;;4994049;28;20048;-72
2023/03/14 12:15:53;;;;;;;8.60;1.20;;;11.40;75.50;;;;;;4993961;28;20046;-72
2023/03/14 12:18:29;;;;;;;8.15;1.55;;;11.10;72.10;;;;;;4993309;28;20527;-72
2023/03/14 12:20:58;;;;;;;5.78;1.42;;;10.80;72.90;;;;;;4993868;28;20062;-72
2023/03/14 12:23:25;;;;;;;5.93;1.63;;;11.10;72.40;;;;;;4993991;28;20112;-72
2023/03/14 12:26:43;;;;;;;6.97;1.73;;;11.30;72.30;;;;;;4993742;28;20518;-72
2023/03/14 12:29:16;;;;;;;6.65;1.50;;;11.70;70.40;;;;;;4900458;29;20116;-72
2023/03/14 12:31:44;;;;;;;6.88;1.50;;;11.60;69.30;;;;;;4989433;28;20082;-70
2023/03/14 12:34:09;;;;;;;10.93;1.45;;;11.30;69.60;;;;;;4993426;28;20050;-71
2023/03/14 12:36:48;;;;;;;9.40;1.83;;;11.10;70.20;;;;;;4993786;28;20046;-71
2023/03/14 12:39:36;;;;;;;7.75;1.55;;;10.90;69.20;;;;;;4993450;28;20050;-72
2023/03/14 12:42:07;;;;;;;8.95;1.65;;;10.50;65.50;;;;;;4978510;28;20046;-71
2023/03/14 12:44:32;;;;;;;6.82;1.38;;;10.20;70.50;;;;;;4993447;28;20045;-71
2023/03/14 12:46:59;;;;;;;7.10;1.30;;;9.90;71.20;;;;;;4993339;28;20042;-72
2023/03/14 12:49:35;;;;;;;10.70;1.40;;;10.10;71.60;;;;;;4993614;28;20069;-72
2023/03/14 12:52:02;;;;;;;8.32;1.65;;;10.20;70.50;;;;;;4993463;28;20243;-72